Flight Track Log - Related Links

Times and Time Zones

All times are in EDT time to prevent confusion due to time zone crossing. See the N56LW flight status page for this flight to view local times or setup timezone preferences in your user account.

Time Position Orientation Groundspeed Altitude Reporting Facility
EDT Latitude Longitude Course Direction KTS MPH feet Rate Location/Type
Sat 09:28:55 PM 26.7664 -80.0350 290° West 251 289 7,700  Level Miami Center
Sat 09:29:55 PM 26.7881 -80.1031 290° West 259 298 9,600 1,300 Climbing Miami Center
Sat 09:30:55 PM 26.8175 -80.1831 292° West 275 316 10,300 900 Climbing Miami Center
Sat 09:31:55 PM 26.8467 -80.2722 290° West 275 316 11,400 750 Climbing Miami Center
Sat 09:32:55 PM 26.8889 -80.3456 313° West 280 322 11,800 1,050 Climbing Miami Center
Sat 09:33:55 PM 26.9586 -80.3967 327° Northwest 284 327 13,500 1,950 Climbing Miami Center
Sat 09:34:55 PM 27.0242 -80.4428 328° Northwest 308 354 15,700 1,600 Climbing Miami Center
Sat 09:35:55 PM 27.0981 -80.4942 328° Northwest 313 360 16,700 650 Climbing Miami Center
Sat 09:36:55 PM 27.1800 -80.5553 326° Northwest 322 371 17,000 200 Climbing Miami Center
Sat 09:37:55 PM 27.2581 -80.6114 327° Northwest 322 371 17,100  Climbing Miami Center
Sat 09:38:55 PM 27.3256 -80.6603 327° Northwest 322 371 17,000 -50 Descending Miami Center
Sat 09:39:55 PM 27.4014 -80.7142 328° Northwest 322 371 17,000  Level Miami Center
Sat 09:40:55 PM 27.4814 -80.7731 327° Northwest 322 371 17,000 -50 Level Miami Center
Sat 09:41:55 PM 27.5508 -80.8247 327° Northwest 322 371 16,900 -700 Descending Miami Center
Sat 09:42:55 PM 27.6308 -80.8814 328° Northwest 317 365 15,600 -1,250 Descending Miami Center
Sat 09:43:55 PM 27.7003 -80.9331 327° Northwest 312 359 14,400 -1,100 Descending Miami Center
Sat 09:44:55 PM 27.7617 -80.9775 327° Northwest 301 346 13,400 -1,088 Descending Miami Center
Sat 09:46:57 PM 27.8833 -81.0667 327° Northwest 240 276 11,100 -758 Descending Orlando TRACON
Sat 09:47:57 PM 27.9500 -81.1167 326° Northwest 257 296 11,100  Level Orlando TRACON
Sat 09:49:03 PM 28.0333 -81.1333 350° North 272 313 11,100 -381 Level Orlando TRACON
Sat 09:50:03 PM 28.0833 -81.2000 310° West 302 348 10,300 -526 Descending Orlando TRACON
Sat 09:50:57 PM 28.1500 -81.2500 327° Northwest 285 328 10,100 -104 Descending Orlando TRACON
Sat 09:51:58 PM 28.2167 -81.3000 327° Northwest 262 302 10,100 -94 Level Orlando TRACON
Sat 09:53:04 PM 28.2833 -81.3500 327° Northwest 264 304 9,900 -714 Descending Orlando TRACON
Sat 09:54:04 PM 28.3333 -81.4000 319° Northwest 281 323 8,600 -1,176 Descending Orlando TRACON
Sat 09:54:46 PM 28.3833 -81.4333 330° Northwest 272 313 7,900 -1,000 Descending Orlando TRACON
Sat 09:55:46 PM 28.4333 -81.4833 319° Northwest 259 298 6,900 -905 Descending Orlando TRACON
Sat 09:56:52 PM 28.5000 -81.5333 327° Northwest 240 276 6,000 -857 Descending Orlando TRACON
Sat 09:57:52 PM 28.5500 -81.5833 319° Northwest 239 275 5,100 -750 Descending Orlando TRACON
Sat 09:58:52 PM 28.6000 -81.6167 330° Northwest 225 259 4,500 -850 Descending Orlando TRACON
Sat 09:59:52 PM 28.6667 -81.6333 348° North 227 261 3,400 -1,158 Descending Orlando TRACON
Sat 10:00:46 PM 28.7167 -81.6667 330° Northwest 203 234 2,300 -900 Descending Orlando TRACON
Sat 10:01:52 PM 28.7500 -81.7000 319° Northwest 175 201 1,600 -636 Descending Orlando TRACON

Login

Don't have an account? Register now (free) for customized features, flight alerts, and more!